Terminal Aerodrome Forecast
Issued by NWS

Home | Current Version | Previous Version | Text Only | Print | Product List | Glossary On
Versions: 1 2 3 4 5 6 7 8 9 10 11 12 13
143
FTPA31 PHFO 281134
TAFHKO
TAF
PHKO 281134Z 2812/2912 10005KT P6SM SCT022
     FM282000 21010KT P6SM SCT070
     FM290200 22008KT P6SM SCT045 BKN060
     FM290700 11007KT P6SM FEW025 BKN060=

USA.gov is the U.S. government's official web portal to all federal, state and local government web resources and services.